createdAt,value
2017-08-15T00:01:09.482Z,2.77
2017-08-15T00:03:36.918Z,2.50
2017-08-15T00:06:05.127Z,2.53
2017-08-15T00:08:32.583Z,2.50
2017-08-15T00:11:00.014Z,3.00
2017-08-15T00:13:27.456Z,2.50
2017-08-15T00:15:55.667Z,2.70
2017-08-15T00:18:23.123Z,2.93
2017-08-15T00:20:50.558Z,3.20
2017-08-15T00:23:17.994Z,2.93
2017-08-15T00:25:46.204Z,2.70
2017-08-15T00:28:13.642Z,2.83
2017-08-15T00:30:41.074Z,2.40
2017-08-15T00:33:09.294Z,2.60
2017-08-15T00:35:36.734Z,2.53
2017-08-15T00:38:04.173Z,2.90
2017-08-15T00:40:32.374Z,2.60
2017-08-15T00:42:59.838Z,2.50
2017-08-15T00:45:27.267Z,2.70
2017-08-15T00:47:54.700Z,2.23
2017-08-15T00:50:22.907Z,2.77
2017-08-15T00:52:50.343Z,2.37
2017-08-15T00:55:18.551Z,2.90
2017-08-15T00:57:45.993Z,2.90
2017-08-15T01:00:13.435Z,2.03
2017-08-15T01:02:40.869Z,2.80
2017-08-15T01:05:09.080Z,2.80
2017-08-15T01:07:36.510Z,2.57
2017-08-15T01:10:04.726Z,2.67
2017-08-15T01:12:32.162Z,2.60
2017-08-15T01:14:59.613Z,2.73
2017-08-15T01:17:27.047Z,2.60
2017-08-15T01:19:55.266Z,2.57
2017-08-15T01:22:22.706Z,2.50
2017-08-15T01:24:50.151Z,2.17
2017-08-15T01:27:17.582Z,2.50
2017-08-15T01:29:45.792Z,2.70
2017-08-15T01:32:13.239Z,2.60
2017-08-15T01:34:40.679Z,2.47
2017-08-15T01:37:08.119Z,2.80
2017-08-15T01:39:35.577Z,2.50
2017-08-15T01:42:03.786Z,2.70
2017-08-15T01:44:31.226Z,2.57
2017-08-15T01:46:59.436Z,2.60
2017-08-15T01:49:26.874Z,2.60
2017-08-15T01:51:54.314Z,2.60
2017-08-15T01:54:21.754Z,2.90
2017-08-15T01:56:49.970Z,2.60
2017-08-15T01:59:17.406Z,2.53
2017-08-15T02:01:44.853Z,2.50
2017-08-15T02:04:13.063Z,2.30
2017-08-15T02:06:40.513Z,2.50
2017-08-15T02:09:07.942Z,3.00
2017-08-15T02:11:35.430Z,2.57
2017-08-15T02:14:02.886Z,2.70
2017-08-15T02:16:30.321Z,2.47
2017-08-15T02:18:57.746Z,3.00
2017-08-15T02:21:25.959Z,2.10
2017-08-15T02:23:53.387Z,2.30
2017-08-15T02:26:22.423Z,2.67
2017-08-15T02:28:49.867Z,2.20
2017-08-15T02:31:17.304Z,2.27
2017-08-15T02:33:44.743Z,2.33
2017-08-15T02:36:12.969Z,2.57
2017-08-15T02:38:40.419Z,2.63
2017-08-15T02:41:07.860Z,2.27
2017-08-15T02:43:35.305Z,2.70
2017-08-15T02:46:02.739Z,2.60
2017-08-15T02:48:30.964Z,2.47
2017-08-15T02:50:58.398Z,2.77
2017-08-15T02:53:25.839Z,2.50
2017-08-15T02:55:53.282Z,2.20
2017-08-15T02:58:21.486Z,2.73
2017-08-15T03:00:48.922Z,2.30
2017-08-15T03:03:17.132Z,3.00
2017-08-15T03:05:44.571Z,2.60
2017-08-15T03:08:12.027Z,2.67
2017-08-15T03:10:39.476Z,2.60
2017-08-15T03:13:06.923Z,2.30
2017-08-15T03:15:35.134Z,2.40
2017-08-15T03:18:02.570Z,2.90
2017-08-15T03:20:30.010Z,2.60
2017-08-15T03:22:59.035Z,3.50
2017-08-15T03:25:26.474Z,2.20
2017-08-15T03:27:53.910Z,2.70
2017-08-15T03:30:22.121Z,2.63
2017-08-15T03:32:49.556Z,2.33
2017-08-15T03:35:16.998Z,2.63
2017-08-15T03:37:45.201Z,2.60
2017-08-15T03:40:12.657Z,2.90
2017-08-15T03:42:40.097Z,2.67
2017-08-15T03:45:07.537Z,2.77
2017-08-15T03:47:35.750Z,2.30
2017-08-15T03:50:03.203Z,2.70
2017-08-15T03:52:30.632Z,2.53
2017-08-15T03:54:58.074Z,2.23
2017-08-15T03:57:26.290Z,2.70
2017-08-15T03:59:53.741Z,2.83
2017-08-15T04:02:21.170Z,2.63
2017-08-15T04:04:48.620Z,2.70
2017-08-15T04:07:16.842Z,2.43
2017-08-15T04:09:44.289Z,2.37
2017-08-15T04:12:11.747Z,2.50
2017-08-15T04:14:39.178Z,2.30
2017-08-15T04:17:06.618Z,2.60
2017-08-15T04:19:34.836Z,2.70
2017-08-15T04:22:02.292Z,2.90
2017-08-15T04:24:29.723Z,2.77
2017-08-15T04:26:57.158Z,3.03
2017-08-15T04:29:25.371Z,2.67
2017-08-15T04:31:52.810Z,2.63
2017-08-15T04:34:20.250Z,2.57
2017-08-15T04:36:48.475Z,2.87
2017-08-15T04:39:15.916Z,2.60
2017-08-15T04:41:43.354Z,2.43
2017-08-15T04:44:10.794Z,2.50
2017-08-15T04:46:39.019Z,2.70
2017-08-15T04:49:06.455Z,2.57
2017-08-15T04:51:33.916Z,2.87
2017-08-15T04:54:01.367Z,2.87
2017-08-15T04:56:28.790Z,2.67
2017-08-15T04:58:56.999Z,2.97
2017-08-15T05:01:24.439Z,2.83
2017-08-15T05:03:51.874Z,3.20
2017-08-15T05:06:20.083Z,2.80
2017-08-15T05:08:47.538Z,2.70
2017-08-15T05:11:14.977Z,3.03
2017-08-15T05:13:42.414Z,2.60
2017-08-15T05:16:10.625Z,3.40
2017-08-15T05:18:38.066Z,2.93
2017-08-15T05:21:05.506Z,2.87
2017-08-15T05:23:32.950Z,3.07
2017-08-15T05:26:01.151Z,2.57
2017-08-15T05:28:28.618Z,2.77
2017-08-15T05:30:56.043Z,2.60
2017-08-15T05:33:24.252Z,3.60
2017-08-15T05:35:51.703Z,2.60
2017-08-15T05:38:22.710Z,3.30
2017-08-15T05:40:50.927Z,3.10
2017-08-15T05:43:18.362Z,3.13
2017-08-15T05:45:45.816Z,3.00
2017-08-15T05:48:13.259Z,3.90
2017-08-15T05:50:40.701Z,3.30
2017-08-15T05:53:08.921Z,3.90
2017-08-15T05:55:36.350Z,3.83
2017-08-15T05:58:03.787Z,3.60
2017-08-15T06:00:31.236Z,4.27
2017-08-15T06:02:58.687Z,3.50
2017-08-15T06:05:26.139Z,3.90
2017-08-15T06:07:53.575Z,3.57
2017-08-15T06:10:21.015Z,3.73
2017-08-15T06:12:48.455Z,3.13
2017-08-15T06:15:15.911Z,3.70
2017-08-15T06:17:43.346Z,2.90
2017-08-15T06:20:11.555Z,3.30
2017-08-15T06:22:38.994Z,3.13
2017-08-15T06:25:06.433Z,3.07
2017-08-15T06:27:34.642Z,2.97
2017-08-15T06:30:02.118Z,3.10
2017-08-15T06:32:29.563Z,3.33
2017-08-15T06:34:59.211Z,3.50
2017-08-15T06:37:26.660Z,3.73
2017-08-15T06:39:54.096Z,4.23
2017-08-15T06:42:21.578Z,3.60
2017-08-15T06:44:49.792Z,3.50
2017-08-15T06:47:17.238Z,3.30
2017-08-15T06:49:44.678Z,4.07
2017-08-15T06:52:12.890Z,3.90
2017-08-15T06:54:40.324Z,3.67
2017-08-15T06:57:07.767Z,3.20
2017-08-15T06:59:35.215Z,3.77
2017-08-15T07:02:03.497Z,4.13
2017-08-15T07:04:30.939Z,3.70
2017-08-15T07:06:59.150Z,3.63
2017-08-15T07:09:26.599Z,3.73
2017-08-15T07:11:54.047Z,3.97
2017-08-15T07:14:21.483Z,3.70
2017-08-15T07:16:48.923Z,3.90
2017-08-15T07:19:16.363Z,3.23
2017-08-15T07:21:43.804Z,3.80
2017-08-15T07:24:11.259Z,3.70
2017-08-15T07:26:38.691Z,3.97
2017-08-15T07:29:06.131Z,3.80
2017-08-15T07:31:34.343Z,3.60
2017-08-15T07:34:01.800Z,3.50
2017-08-15T07:36:29.239Z,3.17
2017-08-15T07:38:56.680Z,3.63
2017-08-15T07:41:24.118Z,3.70
2017-08-15T07:43:52.339Z,3.37
2017-08-15T07:46:19.770Z,3.40
2017-08-15T07:48:47.234Z,3.60
2017-08-15T07:51:14.666Z,3.60
2017-08-15T07:53:42.879Z,3.27
2017-08-15T07:56:10.318Z,3.30
2017-08-15T07:58:37.750Z,3.20
2017-08-15T08:01:05.970Z,3.60
2017-08-15T08:03:33.403Z,4.03
2017-08-15T08:06:01.010Z,3.57
2017-08-15T08:08:28.515Z,3.70
2017-08-15T08:10:55.958Z,4.00
2017-08-15T08:13:24.167Z,3.80
2017-08-15T08:15:51.619Z,3.70
2017-08-15T08:18:19.050Z,3.90
2017-08-15T08:20:46.499Z,4.03
2017-08-15T08:23:14.712Z,4.00
2017-08-15T08:25:42.150Z,3.33
2017-08-15T08:28:09.586Z,3.60
2017-08-15T08:30:37.797Z,3.67
2017-08-15T08:33:05.237Z,4.30
2017-08-15T08:35:32.683Z,3.50
2017-08-15T08:38:00.129Z,3.60
2017-08-15T08:40:28.322Z,3.50
2017-08-15T08:42:55.767Z,3.30
2017-08-15T08:45:23.204Z,3.70
2017-08-15T08:47:51.408Z,3.43
2017-08-15T08:50:18.854Z,3.40
2017-08-15T08:52:46.299Z,3.70
2017-08-15T08:55:14.507Z,3.97
2017-08-15T08:57:41.950Z,3.97
2017-08-15T09:00:09.391Z,3.47
2017-08-15T09:02:36.841Z,3.87
2017-08-15T09:05:04.281Z,3.70
2017-08-15T09:07:31.727Z,3.60
2017-08-15T09:09:59.166Z,3.60
2017-08-15T09:12:26.610Z,3.53
2017-08-15T09:14:54.059Z,3.63
2017-08-15T09:17:21.516Z,4.60
2017-08-15T09:19:48.965Z,3.97
2017-08-15T09:22:16.402Z,3.53
2017-08-15T09:24:43.839Z,3.10
2017-08-15T09:27:12.051Z,3.60
2017-08-15T09:29:45.200Z,4.10
2017-08-15T09:32:13.402Z,4.13
2017-08-15T09:34:40.856Z,3.80
2017-08-15T09:37:08.282Z,3.40
2017-08-15T09:39:36.501Z,4.10
2017-08-15T09:42:03.931Z,4.33
2017-08-15T09:44:31.380Z,3.67
2017-08-15T09:46:58.831Z,3.57
2017-08-15T09:49:27.046Z,4.30
2017-08-15T09:51:54.504Z,4.07
2017-08-15T09:54:21.959Z,3.60
2017-08-15T09:56:49.403Z,3.80
2017-08-15T09:59:16.843Z,4.00
2017-08-15T10:01:44.286Z,3.80
2017-08-15T10:04:12.504Z,3.43
2017-08-15T10:06:39.964Z,3.73
2017-08-15T10:09:07.399Z,3.40
2017-08-15T10:11:34.851Z,3.30
2017-08-15T10:14:02.291Z,3.70
2017-08-15T10:16:29.735Z,3.57
2017-08-15T10:18:57.931Z,3.60
2017-08-15T10:21:25.380Z,3.87
2017-08-15T10:23:53.588Z,3.73
2017-08-15T10:26:21.036Z,3.97
2017-08-15T10:28:48.536Z,3.70
2017-08-15T10:31:15.972Z,3.53
2017-08-15T10:33:43.414Z,3.00
2017-08-15T10:36:10.868Z,2.97
2017-08-15T10:38:38.332Z,4.27
2017-08-15T10:41:05.808Z,3.30
2017-08-15T10:43:33.247Z,3.83
2017-08-15T10:46:00.695Z,3.53
2017-08-15T10:48:28.135Z,3.70
2017-08-15T10:50:55.579Z,3.73
2017-08-15T10:53:23.016Z,3.23
2017-08-15T10:55:51.218Z,3.00
2017-08-15T10:58:18.693Z,3.33
2017-08-15T11:00:46.147Z,3.70
2017-08-15T11:03:13.605Z,3.93
2017-08-15T11:05:41.251Z,4.00
2017-08-15T11:08:08.692Z,3.80
2017-08-15T11:10:36.131Z,4.17
2017-08-15T11:13:04.358Z,4.10
2017-08-15T11:15:31.787Z,3.80
2017-08-15T11:17:59.231Z,3.40
2017-08-15T11:20:26.667Z,3.70
2017-08-15T11:22:54.892Z,3.37
2017-08-15T11:25:22.327Z,3.80
2017-08-15T11:27:49.775Z,3.47
2017-08-15T11:30:17.219Z,3.50
2017-08-15T11:32:44.739Z,3.53
2017-08-15T11:35:12.174Z,3.63
2017-08-15T11:37:39.643Z,3.80
2017-08-15T11:40:07.087Z,3.73
2017-08-15T11:42:34.530Z,3.90
2017-08-15T11:45:01.967Z,3.63
2017-08-15T11:47:29.408Z,3.50
2017-08-15T11:49:56.858Z,3.37
2017-08-15T11:52:24.296Z,3.17
2017-08-15T11:54:51.823Z,3.53
2017-08-15T11:57:19.253Z,3.40
2017-08-15T11:59:46.703Z,3.90
2017-08-15T12:02:14.908Z,4.00
2017-08-15T12:04:42.363Z,3.50
2017-08-15T12:07:09.809Z,3.37
2017-08-15T12:09:37.245Z,2.87
2017-08-15T12:12:05.476Z,3.47
2017-08-15T12:14:32.939Z,2.90
2017-08-15T12:17:00.375Z,3.00
2017-08-15T12:19:27.824Z,3.40
2017-08-15T12:21:55.281Z,3.17
2017-08-15T12:24:22.719Z,3.60
2017-08-15T12:26:50.167Z,3.40
2017-08-15T12:29:17.610Z,3.47
2017-08-15T12:31:45.051Z,3.30
2017-08-15T12:34:13.269Z,3.33
2017-08-15T12:36:40.707Z,3.37
2017-08-15T12:39:08.139Z,3.37
2017-08-15T12:41:36.358Z,3.00
2017-08-15T12:44:03.812Z,3.57
2017-08-15T12:46:31.271Z,3.03
2017-08-15T12:48:58.735Z,3.03
2017-08-15T12:51:26.185Z,3.50
2017-08-15T12:53:53.624Z,3.00
2017-08-15T12:56:21.071Z,2.97
2017-08-15T12:58:48.737Z,2.90
2017-08-15T13:01:16.179Z,3.97
2017-08-15T13:03:44.387Z,3.90
2017-08-15T13:06:11.855Z,3.13
2017-08-15T13:08:39.299Z,3.00
2017-08-15T13:11:06.743Z,3.70
2017-08-15T13:13:34.187Z,2.90
2017-08-15T13:16:01.630Z,3.90
2017-08-15T13:18:29.843Z,4.10
2017-08-15T13:20:57.280Z,4.10
2017-08-15T13:23:24.730Z,3.73
2017-08-15T13:25:52.168Z,4.50
2017-08-15T13:28:20.390Z,4.20
2017-08-15T13:30:47.876Z,4.13
2017-08-15T13:33:15.323Z,4.40
2017-08-15T13:35:42.766Z,4.43
2017-08-15T13:38:10.208Z,3.43
2017-08-15T13:40:37.659Z,3.17
2017-08-15T13:43:05.116Z,4.10
2017-08-15T13:45:32.550Z,3.70
2017-08-15T13:47:59.996Z,4.00
2017-08-15T13:50:28.209Z,3.87
2017-08-15T13:52:55.666Z,3.30
2017-08-15T13:55:23.174Z,4.00
2017-08-15T13:57:50.647Z,3.50
2017-08-15T14:00:18.225Z,3.90
2017-08-15T14:02:46.005Z,3.87
2017-08-15T14:05:13.436Z,3.73
2017-08-15T14:07:40.868Z,3.60
2017-08-15T14:10:09.155Z,4.10
2017-08-15T14:12:37.362Z,3.83
2017-08-15T14:15:04.825Z,3.60
2017-08-15T14:17:32.275Z,3.90
2017-08-15T14:19:59.715Z,3.87
2017-08-15T14:22:27.159Z,3.80
2017-08-15T14:24:54.599Z,3.47
2017-08-15T14:27:22.046Z,3.23
2017-08-15T14:29:49.491Z,4.50
2017-08-15T14:32:16.937Z,3.93
2017-08-15T14:34:44.378Z,3.93
2017-08-15T14:37:11.823Z,3.83
2017-08-15T14:39:39.587Z,3.83
2017-08-15T14:42:07.021Z,4.27
2017-08-15T14:44:34.462Z,4.40
2017-08-15T14:47:02.671Z,4.17
2017-08-15T14:49:30.430Z,4.63
2017-08-15T14:51:57.975Z,4.10
2017-08-15T14:54:25.435Z,4.43
2017-08-15T14:56:52.883Z,4.60
2017-08-15T14:59:20.323Z,4.93
2017-08-15T15:01:48.562Z,4.63
2017-08-15T15:04:16.015Z,4.90
2017-08-15T15:06:43.463Z,5.27
2017-08-15T15:09:10.903Z,4.87
2017-08-15T15:11:38.354Z,4.80
2017-08-15T15:14:05.798Z,4.70
2017-08-15T15:16:33.249Z,4.73
2017-08-15T15:19:00.686Z,5.00
2017-08-15T15:21:28.903Z,5.37
2017-08-15T15:23:56.343Z,5.17
2017-08-15T15:26:23.796Z,5.20
2017-08-15T15:28:51.235Z,4.70
2017-08-15T15:31:19.447Z,4.50
2017-08-15T15:33:46.899Z,5.13
2017-08-15T15:36:14.371Z,5.40
2017-08-15T15:38:41.811Z,5.00
2017-08-15T15:41:09.271Z,4.90
2017-08-15T15:43:36.706Z,4.57
2017-08-15T15:46:04.313Z,5.40
2017-08-15T15:48:31.814Z,4.87
2017-08-15T15:50:59.310Z,4.87
2017-08-15T15:53:26.795Z,5.10
2017-08-15T15:55:54.236Z,5.50
2017-08-15T15:58:21.698Z,5.10
2017-08-15T16:00:49.134Z,5.57
2017-08-15T16:03:16.583Z,5.47
2017-08-15T16:05:44.019Z,5.10
2017-08-15T16:08:11.463Z,4.60
2017-08-15T16:10:38.899Z,4.67
2017-08-15T16:13:07.124Z,4.83
2017-08-15T16:15:34.559Z,5.50
2017-08-15T16:18:02.003Z,5.87
2017-08-15T16:20:30.207Z,5.80
2017-08-15T16:22:57.651Z,5.83
2017-08-15T16:25:25.084Z,5.60
2017-08-15T16:27:53.295Z,5.53
2017-08-15T16:30:20.735Z,5.27
2017-08-15T16:32:48.185Z,5.23
2017-08-15T16:35:15.623Z,5.33
2017-08-15T16:37:43.836Z,5.70
2017-08-15T16:40:11.276Z,5.70
2017-08-15T16:42:38.721Z,5.10
2017-08-15T16:45:06.162Z,5.20
2017-08-15T16:47:34.379Z,6.00
2017-08-15T16:50:01.839Z,6.23
2017-08-15T16:52:29.272Z,5.53
2017-08-15T16:54:56.711Z,6.80
2017-08-15T16:57:24.919Z,5.77
2017-08-15T16:59:52.375Z,6.07
2017-08-15T17:02:19.822Z,5.60
2017-08-15T17:04:47.263Z,6.47
2017-08-15T17:07:14.699Z,6.13
2017-08-15T17:09:42.923Z,5.80
2017-08-15T17:12:10.376Z,6.70
2017-08-15T17:14:37.831Z,6.73
2017-08-15T17:17:05.275Z,7.10
2017-08-15T17:19:32.723Z,7.70
2017-08-15T17:22:00.159Z,6.13
2017-08-15T17:24:28.370Z,6.47
2017-08-15T17:26:55.823Z,5.80
2017-08-15T17:29:23.258Z,5.93
2017-08-15T17:31:50.696Z,6.53
2017-08-15T17:34:18.916Z,5.70
2017-08-15T17:36:46.355Z,7.07
2017-08-15T17:39:13.810Z,6.10
2017-08-15T17:41:41.256Z,6.13
2017-08-15T17:44:09.562Z,7.00
2017-08-15T17:46:37.014Z,6.53
2017-08-15T17:49:04.458Z,5.90
2017-08-15T17:51:31.899Z,6.40
2017-08-15T17:53:59.351Z,5.57
2017-08-15T17:56:27.561Z,5.30
2017-08-15T17:58:55.012Z,4.93
2017-08-15T18:01:22.448Z,4.50
2017-08-15T18:03:49.878Z,4.00
2017-08-15T18:06:18.099Z,3.77
2017-08-15T18:08:45.535Z,4.00
2017-08-15T18:11:12.976Z,4.30
2017-08-15T18:13:40.414Z,3.90
2017-08-15T18:16:07.859Z,4.53
2017-08-15T18:18:35.304Z,4.00
2017-08-15T18:21:02.752Z,3.80
2017-08-15T18:23:30.191Z,3.60
2017-08-15T18:25:57.749Z,3.80
2017-08-15T18:28:25.171Z,3.87
2017-08-15T18:30:52.636Z,3.87
2017-08-15T18:33:20.072Z,4.30
2017-08-15T18:35:47.527Z,3.90
2017-08-15T18:38:14.966Z,4.20
2017-08-15T18:40:42.401Z,3.50
2017-08-15T18:43:09.867Z,4.20
2017-08-15T18:45:37.300Z,4.57
2017-08-15T18:48:04.758Z,4.23
2017-08-15T18:50:32.204Z,3.80
2017-08-15T18:52:59.694Z,3.83
2017-08-15T18:55:27.126Z,4.00
2017-08-15T18:57:54.607Z,4.40
2017-08-15T19:00:22.050Z,4.60
2017-08-15T19:02:49.531Z,3.80
2017-08-15T19:05:17.022Z,4.00
2017-08-15T19:07:44.471Z,3.73
2017-08-15T19:10:11.919Z,4.07
2017-08-15T19:12:40.130Z,3.70
2017-08-15T19:15:07.558Z,3.67
2017-08-15T19:17:35.007Z,3.33
2017-08-15T19:20:03.210Z,3.20
2017-08-15T19:22:30.647Z,4.03
2017-08-15T19:24:58.191Z,3.70
2017-08-15T19:27:25.626Z,3.83
2017-08-15T19:29:53.067Z,3.77
2017-08-15T19:32:20.504Z,3.80
2017-08-15T19:34:47.959Z,4.03
2017-08-15T19:37:15.399Z,4.20
2017-08-15T19:39:42.851Z,3.80
2017-08-15T19:42:10.295Z,4.13
2017-08-15T19:44:37.738Z,4.03
2017-08-15T19:47:05.953Z,3.83
2017-08-15T19:49:33.415Z,4.30
2017-08-15T19:52:00.863Z,3.97
2017-08-15T19:54:28.302Z,3.80
2017-08-15T19:56:55.738Z,4.50
2017-08-15T19:59:23.958Z,4.40
2017-08-15T20:01:51.391Z,4.20
2017-08-15T20:04:18.830Z,4.20
2017-08-15T20:06:46.263Z,4.30
2017-08-15T20:09:13.716Z,4.20
2017-08-15T20:11:41.159Z,4.20
2017-08-15T20:14:08.602Z,4.23
2017-08-15T20:16:36.050Z,4.70
2017-08-15T20:19:03.521Z,4.60
2017-08-15T20:21:30.972Z,4.30
2017-08-15T20:23:58.414Z,4.17
2017-08-15T20:26:25.878Z,4.67
2017-08-15T20:28:53.327Z,4.23
2017-08-15T20:31:20.770Z,4.77
2017-08-15T20:33:48.184Z,4.70
2017-08-15T20:36:16.409Z,4.60
2017-08-15T20:38:43.817Z,4.30
2017-08-15T20:41:12.015Z,4.60
2017-08-15T20:43:39.432Z,4.63
2017-08-15T20:46:06.963Z,4.37
2017-08-15T20:48:34.456Z,3.97
2017-08-15T20:51:01.900Z,4.60
2017-08-15T20:53:29.347Z,4.60
2017-08-15T20:55:56.800Z,4.17
2017-08-15T20:58:24.499Z,4.57
2017-08-15T21:00:51.992Z,3.97
2017-08-15T21:03:19.418Z,4.40
2017-08-15T21:05:47.636Z,4.10
2017-08-15T21:08:15.087Z,4.27
2017-08-15T21:10:44.499Z,4.90
2017-08-15T21:13:11.930Z,4.83
2017-08-15T21:15:42.180Z,3.83
2017-08-15T21:18:09.687Z,4.47
2017-08-15T21:20:37.916Z,4.90
2017-08-15T21:23:05.354Z,3.97
2017-08-15T21:25:32.813Z,4.70
2017-08-15T21:28:00.267Z,4.87
2017-08-15T21:30:27.682Z,4.83
2017-08-15T21:32:55.871Z,4.27
2017-08-15T21:35:23.303Z,4.30
2017-08-15T21:37:51.522Z,3.63
2017-08-15T21:40:18.924Z,3.70
2017-08-15T21:42:46.343Z,3.73
2017-08-15T21:45:13.775Z,3.80
2017-08-15T21:47:41.197Z,3.53
2017-08-15T21:50:09.380Z,4.13
2017-08-15T21:52:37.590Z,3.73
2017-08-15T21:55:05.014Z,4.20
2017-08-15T21:57:32.459Z,4.00
2017-08-15T22:00:00.680Z,3.57
2017-08-15T22:02:28.130Z,3.83
2017-08-15T22:04:56.551Z,3.90
2017-08-15T22:07:23.985Z,3.70
2017-08-15T22:09:51.427Z,4.43
2017-08-15T22:12:18.870Z,4.17
2017-08-15T22:14:46.469Z,4.50
2017-08-15T22:17:13.927Z,5.00
2017-08-15T22:19:41.367Z,4.97
2017-08-15T22:22:08.810Z,4.00
2017-08-15T22:24:36.260Z,4.10
2017-08-15T22:27:03.691Z,4.57
2017-08-15T22:29:31.142Z,4.20
2017-08-15T22:31:59.454Z,4.30
2017-08-15T22:34:26.892Z,4.40
2017-08-15T22:36:54.331Z,4.57
2017-08-15T22:39:22.539Z,3.93
2017-08-15T22:41:49.980Z,4.00
2017-08-15T22:44:17.450Z,4.47
2017-08-15T22:46:44.895Z,3.80
2017-08-15T22:49:12.330Z,3.93
2017-08-15T22:51:40.559Z,4.17
2017-08-15T22:54:08.001Z,4.73
2017-08-15T22:56:35.453Z,4.50
2017-08-15T22:59:02.882Z,4.03
2017-08-15T23:01:30.327Z,4.90
2017-08-15T23:03:57.769Z,4.47
2017-08-15T23:06:25.207Z,4.40
2017-08-15T23:08:52.642Z,4.87
2017-08-15T23:11:20.085Z,4.60
2017-08-15T23:13:47.526Z,4.73
2017-08-15T23:16:14.970Z,4.17
2017-08-15T23:18:42.402Z,4.13
2017-08-15T23:21:10.626Z,4.20
2017-08-15T23:23:38.064Z,4.37
2017-08-15T23:26:05.503Z,4.50
2017-08-15T23:28:33.715Z,4.03
2017-08-15T23:31:01.151Z,3.70
2017-08-15T23:33:28.597Z,4.97
2017-08-15T23:35:56.030Z,3.80
2017-08-15T23:38:23.475Z,3.67
2017-08-15T23:40:50.916Z,3.20
2017-08-15T23:43:18.359Z,3.17
2017-08-15T23:45:45.803Z,3.63
2017-08-15T23:48:13.263Z,3.20
2017-08-15T23:50:40.696Z,3.17
2017-08-15T23:53:08.139Z,3.27
2017-08-15T23:55:35.578Z,2.37
2017-08-15T23:58:03.808Z,3.40
